createdAt,value
2017-10-29T00:00:49.554Z,6.96
2017-10-29T00:03:19.115Z,6.95
2017-10-29T00:05:48.679Z,6.97
2017-10-29T00:08:18.464Z,6.94
2017-10-29T00:10:48.216Z,6.98
2017-10-29T00:13:17.942Z,6.95
2017-10-29T00:15:47.696Z,6.98
2017-10-29T00:18:17.439Z,6.94
2017-10-29T00:20:47.198Z,6.95
2017-10-29T00:23:16.933Z,6.91
2017-10-29T00:25:46.670Z,6.92
2017-10-29T00:28:16.503Z,6.90
2017-10-29T00:30:46.218Z,6.89
2017-10-29T00:33:15.977Z,6.92
2017-10-29T00:35:45.785Z,6.96
2017-10-29T00:38:15.577Z,6.95
2017-10-29T00:40:46.044Z,6.94
2017-10-29T00:43:15.770Z,6.94
2017-10-29T00:45:45.568Z,6.94
2017-10-29T00:48:15.295Z,6.95
2017-10-29T00:50:45.043Z,6.91
2017-10-29T00:53:14.872Z,6.92
2017-10-29T00:55:44.613Z,6.92
2017-10-29T00:58:14.746Z,6.96
2017-10-29T01:00:44.494Z,6.96
2017-10-29T01:03:13.778Z,6.97
2017-10-29T01:05:43.416Z,6.94
2017-10-29T01:08:13.194Z,6.95
2017-10-29T01:10:42.988Z,6.94
2017-10-29T01:13:13.181Z,6.96
2017-10-29T01:15:42.929Z,6.97
2017-10-29T01:18:12.704Z,6.92
2017-10-29T01:20:42.874Z,6.96
2017-10-29T01:23:12.628Z,6.98
2017-10-29T01:25:42.036Z,6.96
2017-10-29T01:28:11.771Z,6.98
2017-10-29T01:30:41.657Z,7.02
2017-10-29T01:33:11.386Z,7.03
2017-10-29T01:35:41.134Z,7.04
2017-10-29T01:38:10.893Z,7.08
2017-10-29T01:40:40.293Z,7.07
2017-10-29T01:43:10.107Z,7.09
2017-10-29T01:45:39.853Z,7.10
2017-10-29T01:48:09.589Z,7.03
2017-10-29T01:50:39.349Z,7.09
2017-10-29T01:53:09.151Z,7.12
2017-10-29T01:55:38.887Z,7.13
2017-10-29T01:58:08.647Z,7.15
2017-10-29T02:00:38.439Z,7.14
2017-10-29T02:03:08.587Z,7.14
2017-10-29T02:05:38.412Z,7.19
2017-10-29T02:08:08.027Z,7.19
2017-10-29T02:10:37.772Z,7.17
2017-10-29T02:13:07.344Z,7.16
2017-10-29T02:15:36.872Z,7.22
2017-10-29T02:18:06.437Z,7.22
2017-10-29T02:20:35.989Z,7.21
2017-10-29T02:23:05.537Z,7.21
2017-10-29T02:25:34.724Z,7.23
2017-10-29T02:28:04.276Z,7.18
2017-10-29T02:30:33.822Z,7.15
2017-10-29T02:33:03.369Z,7.14
2017-10-29T02:35:32.932Z,7.14
2017-10-29T02:38:02.752Z,7.13
2017-10-29T02:40:32.312Z,7.18
2017-10-29T02:43:01.866Z,7.19
2017-10-29T02:45:31.416Z,7.15
2017-10-29T02:48:00.950Z,7.20
2017-10-29T02:50:30.523Z,7.20
2017-10-29T02:53:00.043Z,7.23
2017-10-29T02:55:29.602Z,7.18
2017-10-29T02:57:59.147Z,7.19
2017-10-29T03:00:28.701Z,7.23
2017-10-29T03:02:58.237Z,7.23
2017-10-29T03:05:27.778Z,7.25
2017-10-29T03:07:57.324Z,7.28
2017-10-29T03:10:26.852Z,7.28
2017-10-29T03:12:56.385Z,7.30
2017-10-29T03:15:25.930Z,7.31
2017-10-29T03:17:55.560Z,7.32
2017-10-29T03:20:25.090Z,7.32
2017-10-29T03:22:54.361Z,7.30
2017-10-29T03:25:23.951Z,7.36
2017-10-29T03:27:53.494Z,7.33
2017-10-29T03:30:22.867Z,7.36
2017-10-29T03:32:52.420Z,7.35
2017-10-29T03:35:21.970Z,7.36
2017-10-29T03:37:51.491Z,7.36
2017-10-29T03:40:21.031Z,7.43
2017-10-29T03:42:50.576Z,7.45
2017-10-29T03:45:20.140Z,7.43
2017-10-29T03:47:49.785Z,7.46
2017-10-29T03:50:19.353Z,7.47
2017-10-29T03:52:48.926Z,7.47
2017-10-29T03:55:18.465Z,7.49
2017-10-29T03:57:48.051Z,7.53
2017-10-29T04:00:17.694Z,7.53
2017-10-29T04:02:47.234Z,7.55
2017-10-29T04:05:16.798Z,7.58
2017-10-29T04:07:46.322Z,7.56
2017-10-29T04:10:16.371Z,7.58
2017-10-29T04:12:46.105Z,7.59
2017-10-29T04:15:15.656Z,7.59
2017-10-29T04:17:45.199Z,7.58
2017-10-29T04:20:14.744Z,7.64
2017-10-29T04:22:44.293Z,7.67
2017-10-29T04:25:13.859Z,7.68
2017-10-29T04:27:43.372Z,7.74
2017-10-29T04:30:12.904Z,7.79
2017-10-29T04:32:42.478Z,7.78
2017-10-29T04:35:12.120Z,7.80
2017-10-29T04:37:41.667Z,7.80
2017-10-29T04:40:10.863Z,7.91
2017-10-29T04:42:41.371Z,7.86
2017-10-29T04:45:10.725Z,7.86
2017-10-29T04:47:40.260Z,7.86
2017-10-29T04:50:09.816Z,7.91
2017-10-29T04:52:39.347Z,7.99
2017-10-29T04:55:08.898Z,8.03
2017-10-29T04:57:38.457Z,8.13
2017-10-29T05:00:07.999Z,8.11
2017-10-29T05:02:37.542Z,8.11
2017-10-29T05:05:07.074Z,8.25
2017-10-29T05:07:36.646Z,8.26
2017-10-29T05:10:06.194Z,8.38
2017-10-29T05:12:35.728Z,8.29
2017-10-29T05:15:05.269Z,8.31
2017-10-29T05:17:34.244Z,8.38
2017-10-29T05:20:03.782Z,8.42
2017-10-29T05:22:33.042Z,8.45
2017-10-29T05:25:02.586Z,8.44
2017-10-29T05:27:32.159Z,8.39
2017-10-29T05:30:01.697Z,8.36
2017-10-29T05:32:31.283Z,8.41
2017-10-29T05:35:00.955Z,8.45
2017-10-29T05:37:30.573Z,8.47
2017-10-29T05:40:00.097Z,8.52
2017-10-29T05:42:29.654Z,8.53
2017-10-29T05:44:59.184Z,8.60
2017-10-29T05:47:28.769Z,8.58
2017-10-29T05:49:58.563Z,8.86
2017-10-29T05:52:28.101Z,9.08
2017-10-29T05:54:57.640Z,9.12
2017-10-29T05:57:27.204Z,9.21
2017-10-29T05:59:56.752Z,9.21
2017-10-29T06:02:26.309Z,9.28
2017-10-29T06:04:55.685Z,9.38
2017-10-29T06:07:25.790Z,9.54
2017-10-29T06:09:55.342Z,9.59
2017-10-29T06:12:24.869Z,9.64
2017-10-29T06:14:55.150Z,9.89
2017-10-29T06:17:24.675Z,10.14
2017-10-29T06:19:54.295Z,10.13
2017-10-29T06:22:23.834Z,10.19
2017-10-29T06:24:53.520Z,10.21
2017-10-29T06:27:23.071Z,10.16
2017-10-29T06:29:52.612Z,10.24
2017-10-29T06:32:22.288Z,10.26
2017-10-29T06:34:51.836Z,10.32
2017-10-29T06:37:21.396Z,10.32
2017-10-29T06:39:50.926Z,10.30
2017-10-29T06:42:20.507Z,10.38
2017-10-29T06:44:50.063Z,10.52
2017-10-29T06:47:19.600Z,10.49
2017-10-29T06:49:49.164Z,10.53
2017-10-29T06:52:19.421Z,10.52
2017-10-29T06:54:48.953Z,10.56
2017-10-29T06:57:18.571Z,10.65
2017-10-29T06:59:48.172Z,10.67
2017-10-29T07:02:17.427Z,10.73
2017-10-29T07:04:46.777Z,10.78
2017-10-29T07:07:16.465Z,10.85
2017-10-29T07:09:46.036Z,10.99
2017-10-29T07:12:15.257Z,11.09
2017-10-29T07:14:45.257Z,11.26
2017-10-29T07:17:15.237Z,11.29
2017-10-29T07:19:44.937Z,11.53
2017-10-29T07:22:14.713Z,11.74
2017-10-29T07:24:44.237Z,11.91
2017-10-29T07:27:13.850Z,11.98
2017-10-29T07:29:43.856Z,12.06
2017-10-29T07:32:13.720Z,11.97
2017-10-29T07:34:43.414Z,12.09
2017-10-29T07:37:13.567Z,12.19
2017-10-29T07:39:43.469Z,12.24
2017-10-29T07:42:13.128Z,12.33
2017-10-29T07:44:42.945Z,12.32
2017-10-29T07:47:12.575Z,12.37
2017-10-29T07:49:44.190Z,12.31
2017-10-29T07:52:13.869Z,12.10
2017-10-29T07:54:43.426Z,11.89
2017-10-29T07:57:12.970Z,11.79
2017-10-29T07:59:42.540Z,11.82
2017-10-29T08:02:12.084Z,11.82
2017-10-29T08:04:41.622Z,11.89
2017-10-29T08:07:11.192Z,11.96
2017-10-29T08:09:40.723Z,12.06
2017-10-29T08:12:09.926Z,12.12
2017-10-29T08:14:39.467Z,12.19
2017-10-29T08:17:09.018Z,12.26
2017-10-29T08:19:38.620Z,12.33
2017-10-29T08:22:08.148Z,12.47
2017-10-29T08:24:38.154Z,12.57
2017-10-29T08:27:07.769Z,12.56
2017-10-29T08:29:37.349Z,12.66
2017-10-29T08:32:06.882Z,12.77
2017-10-29T08:34:36.440Z,12.82
2017-10-29T08:37:05.992Z,12.91
2017-10-29T08:39:35.534Z,12.87
2017-10-29T08:42:05.080Z,12.85
2017-10-29T08:44:34.667Z,12.80
2017-10-29T08:47:04.199Z,12.94
2017-10-29T08:49:33.765Z,13.01
2017-10-29T08:52:03.368Z,12.95
2017-10-29T08:54:32.887Z,12.99
2017-10-29T08:57:02.417Z,12.99
2017-10-29T08:59:31.991Z,12.97
2017-10-29T09:02:01.525Z,12.92
2017-10-29T09:04:31.125Z,12.72
2017-10-29T09:07:00.732Z,12.42
2017-10-29T09:09:30.357Z,12.17
2017-10-29T09:11:59.755Z,12.05
2017-10-29T09:14:29.364Z,11.85
2017-10-29T09:16:59.093Z,11.62
2017-10-29T09:19:28.804Z,11.54
2017-10-29T09:21:58.408Z,11.44
2017-10-29T09:24:27.974Z,11.44
2017-10-29T09:26:57.763Z,11.46
2017-10-29T09:29:27.308Z,11.45
2017-10-29T09:31:56.915Z,11.49
2017-10-29T09:34:26.451Z,11.50
2017-10-29T09:36:55.983Z,11.65
2017-10-29T09:39:25.524Z,11.64
2017-10-29T09:41:55.050Z,11.56
2017-10-29T09:44:24.625Z,11.38
2017-10-29T09:46:54.193Z,11.20
2017-10-29T09:49:23.755Z,11.08
2017-10-29T09:51:53.300Z,11.00
2017-10-29T09:54:22.845Z,10.89
2017-10-29T09:56:52.396Z,10.82
2017-10-29T09:59:21.940Z,10.37
2017-10-29T10:01:51.468Z,9.33
2017-10-29T10:04:21.006Z,9.01
2017-10-29T10:06:50.424Z,8.86
2017-10-29T10:09:20.159Z,8.78
2017-10-29T10:11:49.698Z,8.80
2017-10-29T10:14:19.310Z,8.84
2017-10-29T10:16:48.886Z,8.91
2017-10-29T10:19:18.430Z,8.93
2017-10-29T10:21:48.903Z,9.07
2017-10-29T10:24:18.502Z,9.15
2017-10-29T10:26:48.077Z,9.17
2017-10-29T10:29:17.609Z,9.14
2017-10-29T10:31:47.179Z,9.24
2017-10-29T10:34:16.716Z,9.28
2017-10-29T10:36:46.277Z,9.37
2017-10-29T10:39:15.846Z,9.60
2017-10-29T10:41:45.410Z,9.55
2017-10-29T10:44:14.953Z,9.59
2017-10-29T10:46:45.645Z,9.42
2017-10-29T10:49:15.502Z,9.45
2017-10-29T10:51:46.021Z,9.40
2017-10-29T10:54:15.606Z,9.51
2017-10-29T10:56:45.143Z,9.56
2017-10-29T10:59:14.691Z,9.52
2017-10-29T11:01:44.256Z,9.53
2017-10-29T11:04:13.793Z,9.53
2017-10-29T11:06:43.326Z,9.79
2017-10-29T11:09:12.861Z,9.88
2017-10-29T11:11:42.404Z,10.09
2017-10-29T11:14:11.935Z,10.32
2017-10-29T11:16:41.528Z,10.61
2017-10-29T11:19:11.079Z,10.59
2017-10-29T11:21:40.610Z,10.73
2017-10-29T11:24:10.195Z,11.03
2017-10-29T11:26:40.501Z,10.86
2017-10-29T11:29:10.127Z,11.65
2017-10-29T11:31:39.649Z,15.71
2017-10-29T11:34:09.184Z,19.17
2017-10-29T11:36:38.755Z,21.28
2017-10-29T11:39:08.347Z,23.72
2017-10-29T11:41:38.060Z,24.13
2017-10-29T11:44:07.621Z,25.87
2017-10-29T11:46:37.037Z,27.51
2017-10-29T11:49:06.395Z,25.81
2017-10-29T11:51:35.784Z,26.92
2017-10-29T11:54:05.048Z,27.99
2017-10-29T11:56:34.653Z,27.72
2017-10-29T11:59:04.061Z,29.10
2017-10-29T12:01:33.342Z,30.11
2017-10-29T12:04:02.912Z,30.07
2017-10-29T12:06:32.364Z,33.50
2017-10-29T12:09:01.791Z,31.95
2017-10-29T12:11:31.305Z,33.67
2017-10-29T12:14:00.615Z,32.98
2017-10-29T12:16:29.859Z,34.35
2017-10-29T12:19:00.006Z,33.51
2017-10-29T12:21:29.676Z,32.05
2017-10-29T12:23:59.062Z,32.69
2017-10-29T12:26:28.910Z,30.54
2017-10-29T12:28:58.787Z,33.62
2017-10-29T12:31:28.450Z,33.00
2017-10-29T12:33:57.798Z,33.98
2017-10-29T12:36:27.197Z,34.08
2017-10-29T12:38:56.471Z,34.24
2017-10-29T12:41:25.721Z,35.72
2017-10-29T12:43:55.039Z,34.53
2017-10-29T12:46:24.540Z,34.96
2017-10-29T12:48:53.861Z,35.72
2017-10-29T12:51:23.338Z,35.40
2017-10-29T12:53:52.716Z,32.19
2017-10-29T12:56:22.041Z,35.20
2017-10-29T12:58:51.362Z,34.36
2017-10-29T13:01:20.623Z,31.72
2017-10-29T13:03:50.051Z,26.13
2017-10-29T13:06:19.385Z,28.78
2017-10-29T13:08:48.854Z,28.21
2017-10-29T13:11:18.176Z,29.58
2017-10-29T13:13:47.446Z,30.31
2017-10-29T13:16:16.952Z,28.91
2017-10-29T13:18:46.216Z,30.06
2017-10-29T13:21:17.268Z,29.55
2017-10-29T13:23:46.498Z,28.31
2017-10-29T13:26:15.790Z,30.40
2017-10-29T13:28:45.191Z,32.54
2017-10-29T13:31:14.462Z,32.64
2017-10-29T13:33:43.727Z,30.66
2017-10-29T13:36:13.035Z,25.55
2017-10-29T13:38:42.341Z,24.56
2017-10-29T13:41:11.906Z,25.36
2017-10-29T13:43:41.364Z,27.23
2017-10-29T13:46:10.647Z,25.18
2017-10-29T13:48:40.062Z,26.67
2017-10-29T13:51:09.335Z,25.98
2017-10-29T13:53:38.592Z,23.70
2017-10-29T13:56:07.838Z,24.91
2017-10-29T13:58:37.293Z,23.12
2017-10-29T14:01:06.725Z,21.22
2017-10-29T14:03:36.014Z,19.02
2017-10-29T14:06:09.346Z,18.74
2017-10-29T14:08:38.732Z,17.96
2017-10-29T14:11:07.965Z,17.16
2017-10-29T14:13:37.311Z,15.72
2017-10-29T14:16:06.557Z,15.32
2017-10-29T14:18:35.826Z,14.49
2017-10-29T14:21:05.101Z,13.74
2017-10-29T14:23:34.674Z,13.07
2017-10-29T14:26:04.766Z,13.43
2017-10-29T14:28:34.336Z,13.91
2017-10-29T14:31:03.994Z,13.70
2017-10-29T14:33:33.532Z,13.49
2017-10-29T14:36:03.085Z,13.84
2017-10-29T14:38:32.642Z,14.42
2017-10-29T14:41:02.160Z,13.49
2017-10-29T14:43:31.722Z,14.41
2017-10-29T14:46:00.917Z,14.17
2017-10-29T14:48:30.694Z,13.48
2017-10-29T14:51:00.286Z,13.13
2017-10-29T14:53:29.835Z,12.45
2017-10-29T14:55:59.368Z,12.11
2017-10-29T14:58:29.865Z,11.80
2017-10-29T15:00:59.449Z,11.64
2017-10-29T15:03:29.079Z,11.53
2017-10-29T15:05:58.608Z,11.49
2017-10-29T15:08:28.217Z,11.53
2017-10-29T15:10:57.764Z,11.49
2017-10-29T15:13:27.306Z,11.34
2017-10-29T15:15:56.852Z,11.19
2017-10-29T15:18:26.402Z,11.13
2017-10-29T15:20:55.955Z,11.07
2017-10-29T15:23:25.491Z,10.89
2017-10-29T15:25:55.026Z,10.60
2017-10-29T15:28:25.225Z,10.46
2017-10-29T15:30:55.357Z,10.34
2017-10-29T15:33:24.908Z,10.27
2017-10-29T15:35:54.477Z,9.94
2017-10-29T15:38:24.026Z,9.76
2017-10-29T15:40:53.385Z,9.59
2017-10-29T15:43:22.982Z,9.45
2017-10-29T15:45:52.518Z,9.34
2017-10-29T15:48:22.043Z,9.43
2017-10-29T15:50:51.622Z,9.45
2017-10-29T15:53:21.159Z,9.58
2017-10-29T15:55:50.669Z,9.47
2017-10-29T15:58:20.279Z,9.44
2017-10-29T16:00:49.938Z,9.33
2017-10-29T16:03:19.516Z,9.18
2017-10-29T16:05:48.863Z,9.09
2017-10-29T16:08:18.399Z,8.88
2017-10-29T16:10:47.739Z,8.60
2017-10-29T16:13:17.271Z,8.47
2017-10-29T16:15:46.801Z,8.39
2017-10-29T16:18:16.332Z,8.45
2017-10-29T16:20:45.865Z,8.35
2017-10-29T16:23:15.417Z,8.12
2017-10-29T16:25:45.257Z,8.14
2017-10-29T16:28:14.792Z,8.12
2017-10-29T16:30:44.345Z,8.10
2017-10-29T16:33:13.953Z,8.10
2017-10-29T16:35:43.500Z,8.08
2017-10-29T16:38:13.139Z,8.22
2017-10-29T16:40:42.750Z,8.43
2017-10-29T16:43:12.296Z,8.55
2017-10-29T16:45:41.836Z,8.68
2017-10-29T16:48:11.380Z,8.68
2017-10-29T16:50:40.921Z,8.81
2017-10-29T16:53:10.457Z,8.76
2017-10-29T16:55:40.018Z,8.86
2017-10-29T16:58:09.551Z,8.77
2017-10-29T17:00:39.124Z,8.79
2017-10-29T17:03:08.666Z,8.72
2017-10-29T17:05:38.231Z,8.73
2017-10-29T17:08:11.933Z,8.79
2017-10-29T17:10:41.485Z,8.89
2017-10-29T17:13:11.107Z,9.01
2017-10-29T17:15:40.633Z,8.76
2017-10-29T17:18:10.191Z,8.34
2017-10-29T17:20:39.733Z,8.02
2017-10-29T17:23:09.276Z,7.79
2017-10-29T17:25:38.641Z,7.59
2017-10-29T17:28:08.529Z,7.35
2017-10-29T17:30:39.622Z,7.13
2017-10-29T17:33:10.078Z,6.99
2017-10-29T17:35:40.269Z,6.80
2017-10-29T17:38:10.073Z,6.67
2017-10-29T17:40:39.674Z,6.48
2017-10-29T17:43:09.340Z,6.31
2017-10-29T17:45:39.321Z,6.48
2017-10-29T17:48:09.063Z,6.50
2017-10-29T17:50:39.191Z,6.54
2017-10-29T17:53:09.679Z,6.41
2017-10-29T17:55:39.889Z,6.33
2017-10-29T17:58:10.876Z,6.27
2017-10-29T18:00:40.475Z,6.19
2017-10-29T18:03:11.263Z,6.19
2017-10-29T18:05:41.130Z,6.13
2017-10-29T18:08:12.218Z,6.04
2017-10-29T18:10:41.891Z,6.11
2017-10-29T18:13:11.724Z,6.05
2017-10-29T18:15:41.629Z,6.01
2017-10-29T18:18:11.298Z,5.95
2017-10-29T18:20:45.423Z,5.77
2017-10-29T18:23:15.528Z,5.59
2017-10-29T18:25:46.263Z,5.49
2017-10-29T18:28:17.492Z,5.46
2017-10-29T18:30:47.219Z,5.58
2017-10-29T18:33:17.095Z,5.64
2017-10-29T18:35:46.698Z,5.68
2017-10-29T18:38:16.203Z,5.75
2017-10-29T18:40:46.542Z,5.88
2017-10-29T18:43:16.355Z,5.90
2017-10-29T18:45:46.273Z,6.03
2017-10-29T18:48:15.956Z,6.12
2017-10-29T18:50:45.877Z,6.25
2017-10-29T18:53:15.572Z,6.31
2017-10-29T18:55:45.178Z,6.25
2017-10-29T18:58:14.738Z,6.25
2017-10-29T19:00:44.917Z,6.25
2017-10-29T19:03:14.888Z,6.33
2017-10-29T19:05:45.401Z,6.71
2017-10-29T19:08:15.065Z,6.83
2017-10-29T19:10:44.946Z,6.93
2017-10-29T19:13:14.786Z,6.99
2017-10-29T19:15:44.599Z,7.20
2017-10-29T19:18:14.390Z,7.33
2017-10-29T19:20:44.050Z,7.46
2017-10-29T19:23:15.499Z,7.48
2017-10-29T19:25:45.399Z,7.53
2017-10-29T19:28:15.055Z,7.73
2017-10-29T19:30:44.837Z,7.64
2017-10-29T19:33:14.553Z,7.63
2017-10-29T19:35:44.009Z,7.66
2017-10-29T19:38:14.711Z,7.66
2017-10-29T19:40:44.366Z,7.75
2017-10-29T19:43:14.079Z,7.75
2017-10-29T19:45:43.733Z,7.83
2017-10-29T19:48:13.403Z,7.80
2017-10-29T19:50:43.143Z,7.99
2017-10-29T19:53:12.823Z,8.01
2017-10-29T19:55:42.768Z,7.97
2017-10-29T19:58:12.692Z,8.02
2017-10-29T20:00:42.629Z,7.96
2017-10-29T20:03:12.404Z,8.04
2017-10-29T20:05:42.521Z,7.97
2017-10-29T20:08:12.345Z,8.00
2017-10-29T20:10:42.537Z,8.12
2017-10-29T20:13:12.445Z,8.13
2017-10-29T20:15:42.286Z,8.07
2017-10-29T20:18:13.056Z,8.01
2017-10-29T20:20:42.906Z,7.79
2017-10-29T20:23:13.000Z,7.60
2017-10-29T20:25:42.724Z,7.35
2017-10-29T20:28:12.882Z,7.23
2017-10-29T20:30:43.685Z,7.20
2017-10-29T20:33:13.555Z,7.07
2017-10-29T20:35:43.586Z,6.93
2017-10-29T20:38:13.595Z,6.99
2017-10-29T20:40:43.434Z,7.01
2017-10-29T20:43:13.311Z,6.95
2017-10-29T20:45:43.094Z,6.82
2017-10-29T20:48:13.016Z,6.86
2017-10-29T20:50:42.814Z,6.70
2017-10-29T20:53:12.790Z,6.73
2017-10-29T20:55:42.655Z,6.68
2017-10-29T20:58:12.510Z,6.76
2017-10-29T21:00:42.411Z,6.88
2017-10-29T21:03:12.400Z,6.98
2017-10-29T21:05:42.375Z,7.16
2017-10-29T21:08:12.250Z,7.21
2017-10-29T21:10:42.239Z,7.17
2017-10-29T21:13:12.088Z,7.00
2017-10-29T21:15:42.021Z,6.91
2017-10-29T21:18:11.842Z,6.87
2017-10-29T21:20:41.704Z,6.81
2017-10-29T21:23:11.494Z,6.75
2017-10-29T21:25:41.270Z,6.69
2017-10-29T21:28:11.177Z,6.68
2017-10-29T21:30:41.063Z,6.67
2017-10-29T21:33:11.027Z,6.50
2017-10-29T21:35:40.938Z,6.34
2017-10-29T21:38:10.924Z,6.36
2017-10-29T21:40:40.860Z,6.32
2017-10-29T21:43:10.813Z,6.22
2017-10-29T21:45:40.807Z,6.15
2017-10-29T21:48:10.943Z,5.95
2017-10-29T21:50:40.818Z,5.94
2017-10-29T21:53:10.703Z,6.16
2017-10-29T21:55:40.769Z,6.02
2017-10-29T21:58:10.889Z,5.92
2017-10-29T22:00:40.976Z,5.82
2017-10-29T22:03:10.851Z,5.77
2017-10-29T22:05:40.781Z,5.78
2017-10-29T22:08:10.968Z,5.73
2017-10-29T22:10:40.870Z,5.75
2017-10-29T22:13:10.775Z,5.71
2017-10-29T22:15:40.905Z,5.61
2017-10-29T22:18:11.260Z,5.62
2017-10-29T22:20:41.176Z,5.57
2017-10-29T22:23:11.155Z,5.79
2017-10-29T22:25:41.263Z,5.90
2017-10-29T22:28:11.101Z,5.83
2017-10-29T22:30:40.949Z,5.83
2017-10-29T22:33:10.798Z,5.92
2017-10-29T22:35:40.754Z,5.99
2017-10-29T22:38:10.665Z,5.91
2017-10-29T22:40:40.582Z,5.91
2017-10-29T22:43:10.554Z,5.86
2017-10-29T22:45:40.531Z,5.94
2017-10-29T22:48:10.062Z,5.90
2017-10-29T22:50:40.041Z,5.77
2017-10-29T22:53:10.015Z,5.84
2017-10-29T22:55:40.101Z,5.90
2017-10-29T22:58:09.990Z,5.75
2017-10-29T23:00:39.727Z,5.67
2017-10-29T23:03:09.774Z,5.53
2017-10-29T23:05:50.952Z,5.56
2017-10-29T23:08:31.319Z,5.54
2017-10-29T23:11:00.705Z,5.48
2017-10-29T23:13:30.564Z,5.31
2017-10-29T23:16:00.392Z,5.16
2017-10-29T23:18:30.358Z,5.02
2017-10-29T23:21:00.168Z,4.84
2017-10-29T23:23:30.019Z,5.05
2017-10-29T23:25:59.869Z,4.90
2017-10-29T23:28:29.803Z,4.70
2017-10-29T23:30:59.669Z,4.80
2017-10-29T23:33:29.726Z,4.76
2017-10-29T23:35:59.563Z,4.73
2017-10-29T23:38:29.418Z,4.80
2017-10-29T23:40:59.919Z,4.71
2017-10-29T23:43:29.837Z,4.64
2017-10-29T23:45:59.722Z,4.47
2017-10-29T23:48:29.517Z,4.41
2017-10-29T23:50:59.868Z,4.40
2017-10-29T23:53:29.821Z,4.46
2017-10-29T23:55:59.711Z,4.50
2017-10-29T23:58:29.571Z,4.65
